AVA829 SKPE-SBFZ
Flight info
| Callsign | AVA829 |
|---|---|
| Flight time | N/A |
| Altitude | 35000 |
| Route | PEI4A ISNOX DCT DAGUR UP527 MNS UZ12 GEKUB/N0454F370 UZ12 NIGBO UZ18 ENVAN |
| Aircraft | A320/M-SDE3FGHIRWY/LB1 |
Departure
| Time | 2026-04-16 17:12 |
|---|---|
| Airport | Matecaña International Airport (SKPE) |
Arrival
| Time | N/A |
|---|---|
| Airport | Pinto Martins International Airport (SBFZ) |
| Time | Latitude | Longitude | Altitude | Speed | Heading |
|---|---|---|---|---|---|
| 2026-04-16 16:47 | 4.81490 | -75.73749 | 4426 ft | 0 kts | 342° |
| 2026-04-16 17:05 | 4.81482 | -75.73747 | 4453 ft | 4 kts | 342° |
| 2026-04-16 17:05 | 4.81456 | -75.73739 | 4427 ft | 4 kts | 343° |
| 2026-04-16 17:05 | 4.81440 | -75.73734 | 4426 ft | 0 kts | 343° |
| 2026-04-16 17:08 | 4.81446 | -75.73748 | 4429 ft | 7 kts | 275° |
| 2026-04-16 17:08 | 4.81413 | -75.73822 | 4425 ft | 13 kts | 238° |
| 2026-04-16 17:08 | 4.81350 | -75.73880 | 4425 ft | 12 kts | 220° |
| 2026-04-16 17:08 | 4.81288 | -75.73938 | 4423 ft | 12 kts | 225° |
| 2026-04-16 17:09 | 4.81244 | -75.74016 | 4420 ft | 14 kts | 252° |
| 2026-04-16 17:09 | 4.81210 | -75.74123 | 4414 ft | 18 kts | 252° |
| 2026-04-16 17:09 | 4.81169 | -75.74258 | 4406 ft | 23 kts | 253° |
| 2026-04-16 17:09 | 4.81119 | -75.74427 | 4392 ft | 28 kts | 252° |
| 2026-04-16 17:10 | 4.81060 | -75.74606 | 4366 ft | 26 kts | 251° |
| 2026-04-16 17:10 | 4.81006 | -75.74768 | 4352 ft | 25 kts | 252° |
| 2026-04-16 17:10 | 4.80956 | -75.74860 | 4344 ft | 13 kts | 224° |
| 2026-04-16 17:10 | 4.80956 | -75.74891 | 4348 ft | 3 kts | 4° |
| 2026-04-16 17:11 | 4.80973 | -75.74874 | 4344 ft | 6 kts | 63° |
| 2026-04-16 17:11 | 4.80974 | -75.74867 | 4347 ft | 0 kts | 75° |
| 2026-04-16 17:11 | 4.81018 | -75.74727 | 4361 ft | 56 kts | 71° |
| 2026-04-16 17:11 | 4.81216 | -75.74134 | 4414 ft | 121 kts | 72° |
| 2026-04-16 17:12 | 4.81541 | -75.73161 | 4509 ft | 170 kts | 68° |
| 2026-04-16 17:12 | 4.81951 | -75.72028 | 5257 ft | 173 kts | 70° |
| 2026-04-16 17:12 | 4.82366 | -75.70878 | 6033 ft | 180 kts | 72° |
| 2026-04-16 17:12 | 4.82447 | -75.69590 | 6230 ft | 195 kts | 106° |
| 2026-04-16 17:13 | 4.82036 | -75.68764 | 6308 ft | 208 kts | 131° |
| 2026-04-16 17:13 | 4.80773 | -75.67982 | 6443 ft | 226 kts | 171° |
| 2026-04-16 17:13 | 4.79193 | -75.68208 | 6611 ft | 243 kts | 211° |
| 2026-04-16 17:13 | 4.77812 | -75.70030 | 6881 ft | 269 kts | 256° |
| 2026-04-16 17:14 | 4.77610 | -75.71300 | 7169 ft | 277 kts | 267° |
| 2026-04-16 17:14 | 4.77620 | -75.73263 | 7787 ft | 283 kts | 273° |
| 2026-04-16 17:14 | 4.77763 | -75.75208 | 8467 ft | 286 kts | 275° |
| 2026-04-16 17:14 | 4.77920 | -75.77215 | 9153 ft | 289 kts | 274° |
| 2026-04-16 17:15 | 4.78043 | -75.79246 | 9831 ft | 293 kts | 273° |
| 2026-04-16 17:15 | 4.78095 | -75.81320 | 10261 ft | 306 kts | 269° |
| 2026-04-16 17:15 | 4.77960 | -75.83530 | 10383 ft | 328 kts | 261° |
| 2026-04-16 17:15 | 4.77255 | -75.85769 | 10515 ft | 345 kts | 242° |
| 2026-04-16 17:16 | 4.75782 | -75.87647 | 10966 ft | 351 kts | 220° |
| 2026-04-16 17:16 | 4.73656 | -75.88858 | 11499 ft | 355 kts | 197° |
| 2026-04-16 17:16 | 4.71205 | -75.89131 | 12035 ft | 358 kts | 174° |
| 2026-04-16 17:16 | 4.68813 | -75.88394 | 12580 ft | 362 kts | 150° |
| 2026-04-16 17:17 | 4.66923 | -75.86783 | 13112 ft | 365 kts | 127° |
| 2026-04-16 17:17 | 4.65510 | -75.84653 | 13660 ft | 368 kts | 122° |
| 2026-04-16 17:17 | 4.64137 | -75.82466 | 14183 ft | 371 kts | 122° |
| 2026-04-16 17:17 | 4.62761 | -75.80262 | 14697 ft | 374 kts | 122° |
| 2026-04-16 17:18 | 4.61391 | -75.78069 | 15138 ft | 377 kts | 122° |
| 2026-04-16 17:18 | 4.59988 | -75.75830 | 15612 ft | 380 kts | 122° |
| 2026-04-16 17:18 | 4.58579 | -75.73586 | 16066 ft | 383 kts | 122° |
| 2026-04-16 17:18 | 4.57144 | -75.71308 | 16510 ft | 386 kts | 122° |
| 2026-04-16 17:19 | 4.55704 | -75.69023 | 16960 ft | 389 kts | 122° |
| 2026-04-16 17:19 | 4.54270 | -75.66749 | 17384 ft | 392 kts | 123° |
| 2026-04-16 17:19 | 4.52803 | -75.64427 | 17811 ft | 395 kts | 123° |
| 2026-04-16 17:19 | 4.51324 | -75.62087 | 18225 ft | 399 kts | 123° |
| 2026-04-16 17:20 | 4.49836 | -75.59726 | 18624 ft | 402 kts | 123° |
| 2026-04-16 17:20 | 4.48352 | -75.57343 | 19000 ft | 404 kts | 120° |
| 2026-04-16 17:20 | 4.47191 | -75.54778 | 19363 ft | 407 kts | 109° |
| 2026-04-16 17:20 | 4.46493 | -75.52036 | 19720 ft | 410 kts | 102° |
| 2026-04-16 17:21 | 4.45903 | -75.49225 | 20085 ft | 412 kts | 102° |
| 2026-04-16 17:21 | 4.45250 | -75.46419 | 20441 ft | 415 kts | 107° |
| 2026-04-16 17:21 | 4.44207 | -75.43708 | 20751 ft | 416 kts | 113° |
| 2026-04-16 17:21 | 4.43083 | -75.41025 | 21086 ft | 419 kts | 113° |
| 2026-04-16 17:22 | 4.41962 | -75.38314 | 21403 ft | 421 kts | 112° |
| 2026-04-16 17:22 | 4.40846 | -75.35593 | 21728 ft | 423 kts | 112° |
| 2026-04-16 17:22 | 4.39742 | -75.32888 | 22040 ft | 425 kts | 112° |
| 2026-04-16 17:22 | 4.38619 | -75.30134 | 22350 ft | 427 kts | 112° |
| 2026-04-16 17:23 | 4.37489 | -75.27365 | 22666 ft | 430 kts | 112° |
| 2026-04-16 17:23 | 4.36350 | -75.24590 | 22980 ft | 432 kts | 112° |
| 2026-04-16 17:23 | 4.35195 | -75.21788 | 23280 ft | 434 kts | 112° |
| 2026-04-16 17:23 | 4.34054 | -75.19019 | 23566 ft | 436 kts | 112° |
| 2026-04-16 17:24 | 4.32892 | -75.16200 | 23820 ft | 438 kts | 112° |
| 2026-04-16 17:24 | 4.31723 | -75.13357 | 24079 ft | 440 kts | 112° |
| 2026-04-16 17:24 | 4.30550 | -75.10502 | 24338 ft | 442 kts | 112° |
| 2026-04-16 17:24 | 4.29379 | -75.07651 | 24599 ft | 444 kts | 112° |
| 2026-04-16 17:25 | 4.28213 | -75.04814 | 24851 ft | 445 kts | 112° |
| 2026-04-16 17:25 | 4.27029 | -75.01942 | 25109 ft | 447 kts | 112° |
| 2026-04-16 17:25 | 4.25836 | -74.99048 | 25245 ft | 449 kts | 112° |
| 2026-04-16 17:25 | 4.24641 | -74.96148 | 25467 ft | 450 kts | 112° |
| 2026-04-16 17:26 | 4.23454 | -74.93267 | 25680 ft | 452 kts | 112° |
| 2026-04-16 17:26 | 4.22253 | -74.90347 | 25901 ft | 454 kts | 112° |
| 2026-04-16 17:26 | 4.21051 | -74.87415 | 26115 ft | 455 kts | 112° |
| 2026-04-16 17:26 | 4.19848 | -74.84479 | 26339 ft | 457 kts | 112° |
| 2026-04-16 17:27 | 4.18636 | -74.81533 | 26575 ft | 458 kts | 112° |
| 2026-04-16 17:27 | 4.17417 | -74.78578 | 26817 ft | 460 kts | 113° |
| 2026-04-16 17:27 | 4.16187 | -74.75595 | 27051 ft | 462 kts | 112° |
| 2026-04-16 17:27 | 4.14960 | -74.72615 | 27305 ft | 463 kts | 112° |
| 2026-04-16 17:28 | 4.13729 | -74.69620 | 27540 ft | 464 kts | 112° |
| 2026-04-16 17:28 | 4.12500 | -74.66631 | 27789 ft | 466 kts | 112° |
| 2026-04-16 17:28 | 4.11271 | -74.63647 | 28030 ft | 467 kts | 113° |
| 2026-04-16 17:28 | 4.10025 | -74.60631 | 28280 ft | 468 kts | 113° |
| 2026-04-16 17:29 | 4.08775 | -74.57604 | 28525 ft | 470 kts | 113° |
| 2026-04-16 17:29 | 4.07525 | -74.54577 | 28765 ft | 471 kts | 113° |
| 2026-04-16 17:29 | 4.06268 | -74.51529 | 29011 ft | 472 kts | 113° |
| 2026-04-16 17:29 | 4.05029 | -74.48518 | 29215 ft | 473 kts | 112° |
| 2026-04-16 17:30 | 4.03769 | -74.45452 | 29410 ft | 475 kts | 112° |
| 2026-04-16 17:30 | 4.02507 | -74.42385 | 29596 ft | 476 kts | 113° |
| 2026-04-16 17:30 | 4.01257 | -74.39351 | 29787 ft | 477 kts | 113° |
| 2026-04-16 17:30 | 3.99985 | -74.36266 | 29963 ft | 478 kts | 113° |
| 2026-04-16 17:31 | 3.98707 | -74.33174 | 30155 ft | 480 kts | 113° |
| 2026-04-16 17:31 | 3.97432 | -74.30087 | 30329 ft | 481 kts | 113° |
| 2026-04-16 17:31 | 3.96151 | -74.26992 | 30498 ft | 481 kts | 113° |
| 2026-04-16 17:31 | 3.94868 | -74.23888 | 30711 ft | 480 kts | 113° |
| 2026-04-16 17:32 | 3.93585 | -74.20797 | 30923 ft | 480 kts | 114° |
| 2026-04-16 17:32 | 3.92258 | -74.17778 | 31136 ft | 479 kts | 115° |
| 2026-04-16 17:32 | 3.90848 | -74.14751 | 31330 ft | 478 kts | 116° |
| 2026-04-16 17:32 | 3.89398 | -74.11755 | 31538 ft | 477 kts | 117° |
| 2026-04-16 17:33 | 3.87928 | -74.08760 | 31736 ft | 477 kts | 117° |
| 2026-04-16 17:33 | 3.86466 | -74.05763 | 31944 ft | 476 kts | 116° |
| 2026-04-16 17:33 | 3.85032 | -74.02780 | 32147 ft | 476 kts | 116° |
| 2026-04-16 17:33 | 3.83630 | -73.99824 | 32343 ft | 475 kts | 116° |
| 2026-04-16 17:34 | 3.82220 | -73.96824 | 32536 ft | 474 kts | 116° |
| 2026-04-16 17:34 | 3.80814 | -73.93827 | 32751 ft | 474 kts | 116° |
| 2026-04-16 17:34 | 3.79410 | -73.90839 | 32953 ft | 473 kts | 116° |
| 2026-04-16 17:34 | 3.78022 | -73.87894 | 33169 ft | 472 kts | 116° |
| 2026-04-16 17:35 | 3.76616 | -73.84914 | 33384 ft | 471 kts | 116° |
| 2026-04-16 17:35 | 3.75215 | -73.81948 | 33602 ft | 471 kts | 116° |
| 2026-04-16 17:35 | 3.73812 | -73.78981 | 33818 ft | 470 kts | 116° |
| 2026-04-16 17:35 | 3.72408 | -73.76011 | 34035 ft | 469 kts | 116° |
| 2026-04-16 17:36 | 3.71015 | -73.73068 | 34222 ft | 468 kts | 116° |
| 2026-04-16 17:36 | 3.69636 | -73.70156 | 34386 ft | 468 kts | 116° |
| 2026-04-16 17:36 | 3.68237 | -73.67201 | 34546 ft | 467 kts | 116° |
| 2026-04-16 17:36 | 3.66844 | -73.64258 | 34706 ft | 467 kts | 116° |
| 2026-04-16 17:37 | 3.65449 | -73.61312 | 34854 ft | 467 kts | 116° |
| 2026-04-16 17:37 | 3.64056 | -73.58365 | 34999 ft | 467 kts | 116° |
| 2026-04-16 17:37 | 3.62690 | -73.55479 | 35045 ft | 465 kts | 116° |
| 2026-04-16 17:38 | 3.59916 | -73.49623 | 35040 ft | 464 kts | 116° |
| 2026-04-16 17:38 | 3.57147 | -73.43781 | 35026 ft | 463 kts | 116° |
| 2026-04-16 17:39 | 3.54405 | -73.37979 | 35022 ft | 464 kts | 116° |
| 2026-04-16 17:39 | 3.51648 | -73.32135 | 35014 ft | 464 kts | 116° |
| 2026-04-16 17:40 | 3.48881 | -73.26293 | 35005 ft | 464 kts | 116° |
| 2026-04-16 17:40 | 3.46128 | -73.20482 | 35002 ft | 464 kts | 116° |
| 2026-04-16 17:41 | 3.43356 | -73.14645 | 34997 ft | 464 kts | 116° |
| 2026-04-16 17:41 | 3.40593 | -73.08813 | 34988 ft | 464 kts | 116° |
| 2026-04-16 17:42 | 3.37833 | -73.02961 | 34981 ft | 464 kts | 116° |
| 2026-04-16 17:42 | 3.35081 | -72.97151 | 34975 ft | 464 kts | 116° |
| 2026-04-16 17:43 | 3.32313 | -72.91313 | 34966 ft | 464 kts | 116° |
| 2026-04-16 17:43 | 3.29542 | -72.85470 | 34961 ft | 464 kts | 116° |
| 2026-04-16 17:44 | 3.26779 | -72.79649 | 34954 ft | 464 kts | 116° |
| 2026-04-16 17:44 | 3.24011 | -72.73808 | 34946 ft | 464 kts | 116° |
| 2026-04-16 17:45 | 3.21239 | -72.67954 | 34943 ft | 465 kts | 116° |
| 2026-04-16 17:45 | 3.18466 | -72.62107 | 34939 ft | 464 kts | 116° |
| 2026-04-16 17:46 | 3.15687 | -72.56266 | 34933 ft | 464 kts | 116° |
| 2026-04-16 17:46 | 3.12895 | -72.50475 | 34927 ft | 463 kts | 117° |
| 2026-04-16 17:47 | 3.09922 | -72.44748 | 34923 ft | 463 kts | 119° |
| 2026-04-16 17:47 | 3.06903 | -72.39056 | 34915 ft | 462 kts | 118° |
| 2026-04-16 17:48 | 3.03929 | -72.33385 | 34911 ft | 462 kts | 118° |
| 2026-04-16 17:48 | 3.00960 | -72.27664 | 34904 ft | 461 kts | 118° |
| 2026-04-16 17:49 | 2.98028 | -72.22001 | 34899 ft | 461 kts | 118° |
| 2026-04-16 17:49 | 2.95068 | -72.16300 | 34893 ft | 460 kts | 118° |
| 2026-04-16 17:50 | 2.92115 | -72.10622 | 34889 ft | 460 kts | 118° |
| 2026-04-16 17:50 | 2.89158 | -72.04942 | 34888 ft | 459 kts | 118° |
| 2026-04-16 17:51 | 2.86231 | -71.99306 | 34889 ft | 458 kts | 118° |
| 2026-04-16 17:51 | 2.83290 | -71.93633 | 34888 ft | 458 kts | 118° |
| 2026-04-16 17:52 | 2.80368 | -71.88014 | 34889 ft | 457 kts | 118° |
| 2026-04-16 17:52 | 2.77427 | -71.82362 | 34887 ft | 456 kts | 118° |
| 2026-04-16 17:53 | 2.74500 | -71.76738 | 34884 ft | 455 kts | 118° |
| 2026-04-16 17:53 | 2.71590 | -71.71144 | 34881 ft | 455 kts | 118° |
| 2026-04-16 17:54 | 2.68667 | -71.65532 | 34879 ft | 454 kts | 118° |
| 2026-04-16 17:54 | 2.65742 | -71.59922 | 34879 ft | 454 kts | 118° |
| 2026-04-16 17:55 | 2.62843 | -71.54353 | 34879 ft | 453 kts | 118° |
| 2026-04-16 17:55 | 2.59932 | -71.48756 | 34879 ft | 453 kts | 118° |
| 2026-04-16 17:56 | 2.57018 | -71.43161 | 34880 ft | 452 kts | 118° |
| 2026-04-16 17:56 | 2.52688 | -71.34835 | 34881 ft | 451 kts | 118° |
| 2026-04-16 17:57 | 2.49781 | -71.29258 | 34879 ft | 450 kts | 118° |
| 2026-04-16 17:57 | 2.46907 | -71.23723 | 34873 ft | 450 kts | 118° |
| 2026-04-16 17:58 | 2.44026 | -71.18191 | 34873 ft | 449 kts | 118° |
| 2026-04-16 17:58 | 2.41131 | -71.12650 | 34874 ft | 449 kts | 118° |
| 2026-04-16 17:59 | 2.38250 | -71.07130 | 34876 ft | 449 kts | 118° |
| 2026-04-16 17:59 | 2.35357 | -71.01587 | 34871 ft | 449 kts | 118° |
| 2026-04-16 18:00 | 2.32465 | -70.96030 | 34875 ft | 449 kts | 118° |
| 2026-04-16 18:00 | 2.29593 | -70.90523 | 34870 ft | 449 kts | 118° |
| 2026-04-16 18:01 | 2.26692 | -70.84969 | 34869 ft | 450 kts | 119° |
| 2026-04-16 18:01 | 2.23794 | -70.79451 | 34868 ft | 449 kts | 119° |
| 2026-04-16 18:02 | 2.20888 | -70.73925 | 34870 ft | 449 kts | 119° |
| 2026-04-16 18:02 | 2.18464 | -70.69313 | 34874 ft | 449 kts | 119° |
| 2026-04-16 18:03 | 2.15553 | -70.63779 | 34874 ft | 450 kts | 118° |
| 2026-04-16 18:03 | 2.12656 | -70.58270 | 34870 ft | 450 kts | 118° |
| 2026-04-16 18:04 | 2.09737 | -70.52720 | 34864 ft | 450 kts | 118° |
| 2026-04-16 18:04 | 2.06825 | -70.47171 | 34864 ft | 451 kts | 118° |
| 2026-04-16 18:05 | 2.03901 | -70.41611 | 34863 ft | 451 kts | 118° |
| 2026-04-16 18:05 | 2.00988 | -70.36068 | 34863 ft | 451 kts | 118° |
| 2026-04-16 18:06 | 1.98055 | -70.30502 | 34860 ft | 452 kts | 118° |
| 2026-04-16 18:06 | 1.95145 | -70.24964 | 34865 ft | 452 kts | 118° |
| 2026-04-16 18:07 | 1.92217 | -70.19384 | 34869 ft | 452 kts | 118° |
| 2026-04-16 18:07 | 1.89308 | -70.13844 | 34868 ft | 452 kts | 118° |
| 2026-04-16 18:08 | 1.86378 | -70.08273 | 34871 ft | 452 kts | 118° |
| 2026-04-16 18:08 | 1.83439 | -70.02700 | 34873 ft | 452 kts | 118° |
| 2026-04-16 18:09 | 1.80517 | -69.97153 | 34877 ft | 453 kts | 118° |
| 2026-04-16 18:09 | 1.77584 | -69.91572 | 34881 ft | 453 kts | 118° |
| 2026-04-16 18:10 | 1.74650 | -69.85985 | 34881 ft | 453 kts | 118° |
| 2026-04-16 18:10 | 1.71728 | -69.80440 | 34881 ft | 453 kts | 118° |
| 2026-04-16 18:11 | 1.68802 | -69.74852 | 34885 ft | 453 kts | 118° |
| 2026-04-16 18:11 | 1.65935 | -69.69281 | 34880 ft | 452 kts | 118° |
| 2026-04-16 18:12 | 1.63050 | -69.63656 | 34878 ft | 452 kts | 118° |
| 2026-04-16 18:12 | 1.60186 | -69.58099 | 34875 ft | 452 kts | 118° |
| 2026-04-16 18:13 | 1.57298 | -69.52518 | 34874 ft | 451 kts | 118° |
| 2026-04-16 18:13 | 1.54418 | -69.46949 | 34874 ft | 451 kts | 118° |
| 2026-04-16 18:14 | 1.51533 | -69.41352 | 34874 ft | 451 kts | 118° |
| 2026-04-16 18:14 | 1.48683 | -69.35812 | 34875 ft | 451 kts | 118° |
| 2026-04-16 18:15 | 1.45802 | -69.30231 | 34873 ft | 451 kts | 118° |
| 2026-04-16 18:15 | 1.42940 | -69.24678 | 34872 ft | 451 kts | 118° |
| 2026-04-16 18:16 | 1.40064 | -69.19109 | 34874 ft | 451 kts | 118° |
| 2026-04-16 18:16 | 1.37187 | -69.13538 | 34879 ft | 451 kts | 118° |
| 2026-04-16 18:17 | 1.34311 | -69.07956 | 34879 ft | 450 kts | 118° |
| 2026-04-16 18:17 | 1.31456 | -69.02420 | 34881 ft | 450 kts | 118° |
| 2026-04-16 18:18 | 1.28580 | -68.96858 | 34879 ft | 450 kts | 118° |
| 2026-04-16 18:18 | 1.25727 | -68.91334 | 34879 ft | 449 kts | 118° |
| 2026-04-16 18:19 | 1.22860 | -68.85770 | 34875 ft | 449 kts | 117° |
| 2026-04-16 18:19 | 1.19988 | -68.80210 | 34878 ft | 449 kts | 118° |
| 2026-04-16 18:20 | 1.17142 | -68.74693 | 34878 ft | 449 kts | 118° |
| 2026-04-16 18:20 | 1.14286 | -68.69139 | 34871 ft | 448 kts | 118° |
| 2026-04-16 18:21 | 1.11426 | -68.63597 | 34869 ft | 448 kts | 118° |
| 2026-04-16 18:21 | 1.08574 | -68.58101 | 34866 ft | 448 kts | 118° |
| 2026-04-16 18:22 | 1.05702 | -68.52552 | 34870 ft | 448 kts | 118° |
| 2026-04-16 18:22 | 1.02837 | -68.47006 | 34870 ft | 448 kts | 118° |
| 2026-04-16 18:23 | 0.99999 | -68.41492 | 34866 ft | 448 kts | 118° |
| 2026-04-16 18:23 | 0.97135 | -68.35938 | 34870 ft | 449 kts | 118° |
| 2026-04-16 18:24 | 0.94266 | -68.30385 | 34867 ft | 448 kts | 118° |
| 2026-04-16 18:24 | 0.91415 | -68.24866 | 34861 ft | 449 kts | 118° |
| 2026-04-16 18:25 | 0.88544 | -68.19315 | 34861 ft | 449 kts | 118° |
| 2026-04-16 18:25 | 0.85694 | -68.13801 | 34857 ft | 449 kts | 118° |
| 2026-04-16 18:26 | 0.82819 | -68.08239 | 34853 ft | 449 kts | 118° |
| 2026-04-16 18:26 | 0.79946 | -68.02682 | 34851 ft | 450 kts | 118° |
| 2026-04-16 18:27 | 0.77067 | -67.97107 | 34853 ft | 450 kts | 118° |
| 2026-04-16 18:27 | 0.74211 | -67.91570 | 34851 ft | 450 kts | 118° |
| 2026-04-16 18:28 | 0.71332 | -67.85996 | 34849 ft | 451 kts | 118° |
| 2026-04-16 18:28 | 0.68472 | -67.80460 | 34851 ft | 451 kts | 118° |
| 2026-04-16 18:29 | 0.65592 | -67.74885 | 34851 ft | 451 kts | 118° |
| 2026-04-16 18:29 | 0.62702 | -67.69296 | 34851 ft | 452 kts | 118° |
| 2026-04-16 18:30 | 0.59819 | -67.63714 | 34848 ft | 452 kts | 118° |
| 2026-04-16 18:30 | 0.56944 | -67.58156 | 34849 ft | 452 kts | 118° |
| 2026-04-16 18:31 | 0.54055 | -67.52572 | 34848 ft | 452 kts | 118° |
| 2026-04-16 18:31 | 0.51163 | -67.46975 | 34854 ft | 453 kts | 118° |
| 2026-04-16 18:32 | 0.48278 | -67.41386 | 34852 ft | 453 kts | 118° |
| 2026-04-16 18:32 | 0.45386 | -67.35790 | 34852 ft | 453 kts | 118° |
| 2026-04-16 18:33 | 0.42509 | -67.30221 | 34851 ft | 453 kts | 118° |
| 2026-04-16 18:33 | 0.39610 | -67.24616 | 34847 ft | 453 kts | 118° |
| 2026-04-16 18:34 | 0.36708 | -67.19002 | 34851 ft | 454 kts | 118° |
| 2026-04-16 18:34 | 0.33826 | -67.13436 | 34847 ft | 454 kts | 118° |
| 2026-04-16 18:35 | 0.30929 | -67.07823 | 34852 ft | 454 kts | 118° |
| 2026-04-16 18:35 | 0.28024 | -67.02207 | 34850 ft | 454 kts | 118° |
| 2026-04-16 18:36 | 0.25125 | -66.96599 | 34853 ft | 454 kts | 118° |
| 2026-04-16 18:36 | 0.22243 | -66.91016 | 34856 ft | 453 kts | 118° |
| 2026-04-16 18:37 | 0.19346 | -66.85409 | 34858 ft | 453 kts | 118° |
| 2026-04-16 18:37 | 0.16455 | -66.79811 | 34862 ft | 453 kts | 118° |
| 2026-04-16 18:38 | 0.13585 | -66.74256 | 34864 ft | 452 kts | 118° |
| 2026-04-16 18:38 | 0.10696 | -66.68679 | 34864 ft | 452 kts | 118° |
| 2026-04-16 18:39 | 0.07815 | -66.63094 | 34866 ft | 451 kts | 118° |
| 2026-04-16 18:39 | 0.04945 | -66.57537 | 34866 ft | 451 kts | 118° |
| 2026-04-16 18:40 | 0.02060 | -66.51955 | 34868 ft | 451 kts | 118° |
| 2026-04-16 18:40 | -0.00806 | -66.46415 | 34867 ft | 450 kts | 118° |
| 2026-04-16 18:41 | -0.03687 | -66.40855 | 34868 ft | 450 kts | 118° |
| 2026-04-16 18:41 | -0.06563 | -66.35289 | 34862 ft | 449 kts | 118° |
| 2026-04-16 18:42 | -0.09414 | -66.29769 | 34860 ft | 449 kts | 118° |
| 2026-04-16 18:42 | -0.12285 | -66.24206 | 34857 ft | 449 kts | 118° |
| 2026-04-16 18:43 | -0.15157 | -66.18639 | 34855 ft | 449 kts | 118° |
| 2026-04-16 18:43 | -0.18010 | -66.13117 | 34854 ft | 449 kts | 118° |
| 2026-04-16 18:44 | -0.20890 | -66.07555 | 34852 ft | 449 kts | 118° |
| 2026-04-16 18:44 | -0.23765 | -66.01995 | 34856 ft | 449 kts | 118° |
| 2026-04-16 18:45 | -0.26613 | -65.96479 | 34852 ft | 449 kts | 118° |
| 2026-04-16 18:45 | -0.29490 | -65.90909 | 34853 ft | 449 kts | 118° |
| 2026-04-16 18:46 | -0.32338 | -65.85393 | 34849 ft | 449 kts | 118° |
| 2026-04-16 18:46 | -0.35213 | -65.79823 | 34851 ft | 449 kts | 118° |
| 2026-04-16 18:47 | -0.38086 | -65.74270 | 34853 ft | 449 kts | 118° |
| 2026-04-16 18:47 | -0.40938 | -65.68754 | 34849 ft | 449 kts | 118° |
| 2026-04-16 18:48 | -0.43804 | -65.63208 | 34849 ft | 449 kts | 118° |
| 2026-04-16 18:48 | -0.46674 | -65.57655 | 34847 ft | 449 kts | 118° |
| 2026-04-16 18:49 | -0.49527 | -65.52127 | 34843 ft | 449 kts | 118° |
| 2026-04-16 18:49 | -0.51916 | -65.47510 | 34844 ft | 449 kts | 118° |
| 2026-04-16 18:50 | -0.55253 | -65.41050 | 34845 ft | 449 kts | 118° |
| 2026-04-16 18:50 | -0.57645 | -65.36433 | 34843 ft | 449 kts | 118° |
| 2026-04-16 18:51 | -0.60520 | -65.30876 | 34844 ft | 449 kts | 118° |
| 2026-04-16 18:51 | -0.63386 | -65.25320 | 34844 ft | 449 kts | 118° |
| 2026-04-16 18:52 | -0.66241 | -65.19797 | 34844 ft | 449 kts | 118° |
| 2026-04-16 18:52 | -0.69146 | -65.14272 | 34840 ft | 449 kts | 119° |
| 2026-04-16 18:53 | -0.72151 | -65.08812 | 34841 ft | 448 kts | 120° |
| 2026-04-16 18:53 | -0.75177 | -65.03355 | 34846 ft | 448 kts | 120° |
| 2026-04-16 18:54 | -0.78176 | -64.97891 | 34846 ft | 448 kts | 120° |
| 2026-04-16 18:54 | -0.81156 | -64.92453 | 34847 ft | 448 kts | 120° |
| 2026-04-16 18:55 | -0.84150 | -64.86976 | 34848 ft | 448 kts | 119° |
| 2026-04-16 18:55 | -0.87113 | -64.81540 | 34841 ft | 448 kts | 120° |
| 2026-04-16 18:56 | -0.90105 | -64.76058 | 34840 ft | 448 kts | 120° |
| 2026-04-16 18:56 | -0.93098 | -64.70578 | 34840 ft | 448 kts | 120° |
| 2026-04-16 18:57 | -0.96074 | -64.65145 | 34842 ft | 448 kts | 120° |
| 2026-04-16 18:58 | -1.00559 | -64.56956 | 34840 ft | 448 kts | 120° |
| 2026-04-16 18:58 | -1.03555 | -64.51480 | 34840 ft | 449 kts | 120° |
| 2026-04-16 18:59 | -1.06552 | -64.46002 | 34841 ft | 449 kts | 120° |
| 2026-04-16 18:59 | -1.09542 | -64.40515 | 34841 ft | 449 kts | 120° |
| 2026-04-16 19:00 | -1.12515 | -64.35062 | 34842 ft | 449 kts | 120° |
| 2026-04-16 19:00 | -1.15509 | -64.29587 | 34842 ft | 449 kts | 120° |
| 2026-04-16 19:01 | -1.18489 | -64.24137 | 34846 ft | 449 kts | 120° |
| 2026-04-16 19:01 | -1.21487 | -64.18658 | 34841 ft | 449 kts | 120° |
| 2026-04-16 19:02 | -1.24483 | -64.13173 | 34843 ft | 448 kts | 120° |
| 2026-04-16 19:02 | -1.27456 | -64.07733 | 34847 ft | 448 kts | 120° |
| 2026-04-16 19:03 | -1.30457 | -64.02249 | 34847 ft | 448 kts | 120° |
| 2026-04-16 19:03 | -1.33443 | -63.96781 | 34845 ft | 448 kts | 120° |
| 2026-04-16 19:04 | -1.36407 | -63.91343 | 34844 ft | 448 kts | 120° |
| 2026-04-16 19:04 | -1.39399 | -63.85862 | 34845 ft | 447 kts | 120° |
| 2026-04-16 19:05 | -1.42375 | -63.80424 | 34844 ft | 447 kts | 120° |
| 2026-04-16 19:05 | -1.45366 | -63.74960 | 34845 ft | 447 kts | 120° |
| 2026-04-16 19:06 | -1.48346 | -63.69501 | 34846 ft | 447 kts | 120° |
| 2026-04-16 19:06 | -1.51304 | -63.64072 | 34842 ft | 447 kts | 120° |
| 2026-04-16 19:07 | -1.54290 | -63.58609 | 34840 ft | 446 kts | 120° |
| 2026-04-16 19:07 | -1.57255 | -63.53187 | 34840 ft | 446 kts | 120° |
| 2026-04-16 19:08 | -1.60235 | -63.47725 | 34839 ft | 446 kts | 120° |
| 2026-04-16 19:08 | -1.63204 | -63.42272 | 34839 ft | 446 kts | 120° |
| 2026-04-16 19:09 | -1.65173 | -63.38668 | 34836 ft | 446 kts | 120° |